Accueil
METAR-TAF:

METAR-TAF

Aéroports :

Aéroport de Bournemouth

Bornemouth, Angleterre

latitude: 50-47N, longitude: 001-50W, altitude: 11 m

Observation

Le bulletin a été fait il y a 5 heures et 20 minutes, à 21:20 UTC
Vent 9 kt de est/nord-est
Température 6°C
Humidité 81%
Pression 1023 hPa
Visibilité 10 km ou plus
pas de nuages en-dessous de 1500 mètres et pas de cumulonimbus.

METAR: EGHH 182120Z 06009KT CAVOK 06/03 Q1023

Heure: 02:40 (02:40 UTC)

Prévision

Le bulletin a été fait il y a 6 heures et 47 minutes, à 19:53 UTC
Prévision valable du 18 à 21 UTC au 19 à 06 UTC
Vent 12 kt de est/nord-est
Visibilité 10 km ou plus
pas de nuages en-dessous de 1500 mètres et pas de cumulonimbus.
Probabilité 30%
du 18 à 21 UTC au 19 à 06 UTC
Visibilité: 8000 m
Evoluant progressivement
du 19 à 03 UTC au 19 à 06 UTC
Nuages fragmentés à une hauteur de 1500 ft

TAF: EGHH 181953Z 1821/1906 06012KT CAVOK PROB30 1821/1906 8000 BECMG 1903/1906 BKN015

Observations et prévisions météorologiques de plus de 4000 aéroports (messages METAR et TAF).

Les stations disponibles sont représentées par des disques jaunes et rouges sur la carte.

Passer la souris dessus pour voir le nom de la station.

Cliquer dessus pour voir les observations et prévisions météorologiques.

Pour changer de carte: cliquez sur les boutons verts avec une croix noire pour zoomer, sur le bouton vert avec un tiret pour effectuer un zoom arrière, ou sur les flèches vertes pour les cartes adjacentes.


METAR-TAF: